sensor_id;sensor_type;location;lat;lon;timestamp;P1;durP1;ratioP1;P2;durP2;ratioP2
69246;SDS011;56358;56.328;43.992;2023-10-19T00:01:16;19.33;;;8.43;;
69246;SDS011;56358;56.328;43.992;2023-10-19T00:03:18;16.55;;;8.07;;
69246;SDS011;56358;56.328;43.992;2023-10-19T00:05:19;15.88;;;7.85;;
69246;SDS011;56358;56.328;43.992;2023-10-19T00:07:20;15.52;;;7.63;;
69246;SDS011;56358;56.328;43.992;2023-10-19T00:09:21;19.52;;;8.05;;
69246;SDS011;56358;56.328;43.992;2023-10-19T00:11:22;16.58;;;7.25;;
69246;SDS011;56358;56.328;43.992;2023-10-19T00:13:24;16.10;;;7.03;;
69246;SDS011;56358;56.328;43.992;2023-10-19T00:15:25;14.82;;;7.00;;
69246;SDS011;56358;56.328;43.992;2023-10-19T00:17:31;14.45;;;6.97;;
69246;SDS011;56358;56.328;43.992;2023-10-19T00:19:33;13.10;;;6.75;;
69246;SDS011;56358;56.328;43.992;2023-10-19T00:21:40;13.25;;;6.30;;
69246;SDS011;56358;56.328;43.992;2023-10-19T00:23:56;16.95;;;6.60;;
69246;SDS011;56358;56.328;43.992;2023-10-19T00:25:59;13.48;;;6.25;;
69246;SDS011;56358;56.328;43.992;2023-10-19T00:28:05;12.60;;;6.57;;
69246;SDS011;56358;56.328;43.992;2023-10-19T00:30:06;14.98;;;5.53;;
69246;SDS011;56358;56.328;43.992;2023-10-19T00:32:08;11.15;;;6.10;;
69246;SDS011;56358;56.328;43.992;2023-10-19T00:34:14;12.23;;;6.00;;
69246;SDS011;56358;56.328;43.992;2023-10-19T00:36:16;14.05;;;5.60;;
69246;SDS011;56358;56.328;43.992;2023-10-19T00:38:16;11.73;;;5.60;;
69246;SDS011;56358;56.328;43.992;2023-10-19T00:40:20;13.20;;;5.50;;
69246;SDS011;56358;56.328;43.992;2023-10-19T00:42:34;10.45;;;5.07;;
69246;SDS011;56358;56.328;43.992;2023-10-19T00:44:38;11.18;;;5.43;;
69246;SDS011;56358;56.328;43.992;2023-10-19T00:46:42;11.98;;;5.53;;
69246;SDS011;56358;56.328;43.992;2023-10-19T00:48:54;11.27;;;5.35;;
69246;SDS011;56358;56.328;43.992;2023-10-19T00:50:58;10.57;;;5.05;;
69246;SDS011;56358;56.328;43.992;2023-10-19T00:53:09;11.18;;;5.38;;
69246;SDS011;56358;56.328;43.992;2023-10-19T00:55:13;12.80;;;5.78;;
69246;SDS011;56358;56.328;43.992;2023-10-19T00:57:15;12.32;;;5.50;;
69246;SDS011;56358;56.328;43.992;2023-10-19T00:59:20;10.07;;;5.03;;
69246;SDS011;56358;56.328;43.992;2023-10-19T01:01:26;10.60;;;5.07;;
69246;SDS011;56358;56.328;43.992;2023-10-19T01:03:29;10.70;;;5.32;;
69246;SDS011;56358;56.328;43.992;2023-10-19T01:05:35;9.52;;;4.50;;
69246;SDS011;56358;56.328;43.992;2023-10-19T01:07:36;9.88;;;5.10;;
69246;SDS011;56358;56.328;43.992;2023-10-19T01:09:42;11.68;;;5.30;;
69246;SDS011;56358;56.328;43.992;2023-10-19T01:11:44;10.27;;;5.18;;
69246;SDS011;56358;56.328;43.992;2023-10-19T01:13:46;9.93;;;5.63;;
69246;SDS011;56358;56.328;43.992;2023-10-19T01:15:48;10.75;;;5.10;;
69246;SDS011;56358;56.328;43.992;2023-10-19T01:17:50;9.02;;;5.15;;
69246;SDS011;56358;56.328;43.992;2023-10-19T01:19:53;11.10;;;5.20;;
69246;SDS011;56358;56.328;43.992;2023-10-19T01:21:53;11.95;;;5.80;;
69246;SDS011;56358;56.328;43.992;2023-10-19T01:24:00;16.27;;;6.72;;
69246;SDS011;56358;56.328;43.992;2023-10-19T01:26:00;16.23;;;6.88;;
69246;SDS011;56358;56.328;43.992;2023-10-19T01:28:09;16.90;;;7.93;;
69246;SDS011;56358;56.328;43.992;2023-10-19T01:30:10;17.65;;;7.32;;
69246;SDS011;56358;56.328;43.992;2023-10-19T01:32:14;16.30;;;7.28;;
69246;SDS011;56358;56.328;43.992;2023-10-19T01:34:15;16.52;;;8.27;;
69246;SDS011;56358;56.328;43.992;2023-10-19T01:36:20;19.45;;;8.57;;
69246;SDS011;56358;56.328;43.992;2023-10-19T01:38:24;17.60;;;8.25;;
69246;SDS011;56358;56.328;43.992;2023-10-19T01:40:25;18.63;;;8.13;;
69246;SDS011;56358;56.328;43.992;2023-10-19T01:42:30;15.70;;;8.18;;
69246;SDS011;56358;56.328;43.992;2023-10-19T01:44:31;15.13;;;7.93;;
69246;SDS011;56358;56.328;43.992;2023-10-19T01:46:33;19.30;;;8.65;;
69246;SDS011;56358;56.328;43.992;2023-10-19T01:48:36;20.30;;;8.48;;
69246;SDS011;56358;56.328;43.992;2023-10-19T01:50:38;17.85;;;8.68;;
69246;SDS011;56358;56.328;43.992;2023-10-19T01:52:40;14.20;;;7.15;;
69246;SDS011;56358;56.328;43.992;2023-10-19T01:54:40;13.60;;;7.55;;
69246;SDS011;56358;56.328;43.992;2023-10-19T01:56:42;19.70;;;7.30;;
69246;SDS011;56358;56.328;43.992;2023-10-19T01:58:44;16.10;;;7.60;;
69246;SDS011;56358;56.328;43.992;2023-10-19T02:00:49;15.93;;;7.43;;
69246;SDS011;56358;56.328;43.992;2023-10-19T02:02:50;17.33;;;7.53;;
69246;SDS011;56358;56.328;43.992;2023-10-19T02:04:51;17.92;;;7.45;;
69246;SDS011;56358;56.328;43.992;2023-10-19T02:06:53;16.92;;;8.23;;
69246;SDS011;56358;56.328;43.992;2023-10-19T02:11:19;14.40;;;7.82;;
69246;SDS011;56358;56.328;43.992;2023-10-19T02:13:24;15.55;;;6.88;;
69246;SDS011;56358;56.328;43.992;2023-10-19T02:15:24;14.75;;;7.07;;
69246;SDS011;56358;56.328;43.992;2023-10-19T02:17:25;16.13;;;8.23;;
69246;SDS011;56358;56.328;43.992;2023-10-19T02:19:27;17.35;;;8.85;;
69246;SDS011;56358;56.328;43.992;2023-10-19T02:21:28;17.73;;;8.45;;
69246;SDS011;56358;56.328;43.992;2023-10-19T02:23:32;17.85;;;7.38;;
69246;SDS011;56358;56.328;43.992;2023-10-19T02:25:36;18.77;;;7.85;;
69246;SDS011;56358;56.328;43.992;2023-10-19T02:27:37;20.67;;;7.35;;
69246;SDS011;56358;56.328;43.992;2023-10-19T02:29:37;14.82;;;7.18;;
69246;SDS011;56358;56.328;43.992;2023-10-19T02:31:39;18.02;;;7.35;;
69246;SDS011;56358;56.328;43.992;2023-10-19T02:33:44;18.67;;;7.43;;
69246;SDS011;56358;56.328;43.992;2023-10-19T02:35:52;16.95;;;7.93;;
69246;SDS011;56358;56.328;43.992;2023-10-19T02:37:52;14.18;;;7.18;;
69246;SDS011;56358;56.328;43.992;2023-10-19T02:39:53;13.95;;;6.75;;
69246;SDS011;56358;56.328;43.992;2023-10-19T02:41:54;14.57;;;6.78;;
69246;SDS011;56358;56.328;43.992;2023-10-19T02:43:56;14.68;;;7.13;;
69246;SDS011;56358;56.328;43.992;2023-10-19T02:46:10;15.32;;;7.18;;
69246;SDS011;56358;56.328;43.992;2023-10-19T02:48:11;14.35;;;6.70;;
69246;SDS011;56358;56.328;43.992;2023-10-19T02:50:13;15.43;;;6.88;;
69246;SDS011;56358;56.328;43.992;2023-10-19T02:52:16;16.90;;;7.30;;
69246;SDS011;56358;56.328;43.992;2023-10-19T02:54:21;15.55;;;7.30;;
69246;SDS011;56358;56.328;43.992;2023-10-19T02:56:25;16.10;;;6.78;;
69246;SDS011;56358;56.328;43.992;2023-10-19T02:58:27;15.93;;;7.00;;
69246;SDS011;56358;56.328;43.992;2023-10-19T03:00:28;12.57;;;6.20;;
69246;SDS011;56358;56.328;43.992;2023-10-19T03:02:32;12.65;;;6.82;;
69246;SDS011;56358;56.328;43.992;2023-10-19T03:04:33;13.93;;;6.45;;
69246;SDS011;56358;56.328;43.992;2023-10-19T03:06:36;14.20;;;6.47;;
69246;SDS011;56358;56.328;43.992;2023-10-19T03:08:37;13.98;;;6.05;;
69246;SDS011;56358;56.328;43.992;2023-10-19T03:10:37;13.63;;;6.45;;
69246;SDS011;56358;56.328;43.992;2023-10-19T03:12:42;14.80;;;6.75;;
69246;SDS011;56358;56.328;43.992;2023-10-19T03:14:43;15.40;;;6.80;;
69246;SDS011;56358;56.328;43.992;2023-10-19T03:16:46;14.50;;;6.60;;
69246;SDS011;56358;56.328;43.992;2023-10-19T03:18:47;12.45;;;5.90;;
69246;SDS011;56358;56.328;43.992;2023-10-19T03:20:48;15.68;;;6.43;;
69246;SDS011;56358;56.328;43.992;2023-10-19T03:22:51;13.18;;;6.35;;
69246;SDS011;56358;56.328;43.992;2023-10-19T03:24:51;13.05;;;5.72;;
69246;SDS011;56358;56.328;43.992;2023-10-19T03:27:13;11.07;;;5.63;;
69246;SDS011;56358;56.328;43.992;2023-10-19T03:29:24;14.27;;;6.45;;
69246;SDS011;56358;56.328;43.992;2023-10-19T03:31:38;10.70;;;5.85;;
69246;SDS011;56358;56.328;43.992;2023-10-19T03:33:44;13.73;;;6.50;;
69246;SDS011;56358;56.328;43.992;2023-10-19T03:35:49;11.15;;;5.72;;
69246;SDS011;56358;56.328;43.992;2023-10-19T03:37:52;10.05;;;5.45;;
69246;SDS011;56358;56.328;43.992;2023-10-19T03:39:52;9.07;;;5.38;;
69246;SDS011;56358;56.328;43.992;2023-10-19T03:41:57;11.90;;;5.45;;
69246;SDS011;56358;56.328;43.992;2023-10-19T03:43:57;13.32;;;6.35;;
69246;SDS011;56358;56.328;43.992;2023-10-19T03:45:58;10.75;;;5.78;;
69246;SDS011;56358;56.328;43.992;2023-10-19T03:48:04;13.20;;;5.78;;
69246;SDS011;56358;56.328;43.992;2023-10-19T03:50:09;10.00;;;5.97;;
69246;SDS011;56358;56.328;43.992;2023-10-19T03:52:14;13.23;;;6.50;;
69246;SDS011;56358;56.328;43.992;2023-10-19T03:54:15;11.77;;;5.70;;
69246;SDS011;56358;56.328;43.992;2023-10-19T03:56:22;12.10;;;5.78;;
69246;SDS011;56358;56.328;43.992;2023-10-19T03:58:24;12.05;;;6.32;;
69246;SDS011;56358;56.328;43.992;2023-10-19T04:00:25;10.40;;;5.70;;
69246;SDS011;56358;56.328;43.992;2023-10-19T04:02:28;10.20;;;6.20;;
69246;SDS011;56358;56.328;43.992;2023-10-19T04:04:38;10.82;;;5.60;;
69246;SDS011;56358;56.328;43.992;2023-10-19T04:06:44;13.25;;;6.50;;
69246;SDS011;56358;56.328;43.992;2023-10-19T04:08:48;10.35;;;6.20;;
69246;SDS011;56358;56.328;43.992;2023-10-19T04:10:51;9.48;;;6.00;;
69246;SDS011;56358;56.328;43.992;2023-10-19T04:13:11;11.23;;;6.40;;
69246;SDS011;56358;56.328;43.992;2023-10-19T04:15:12;10.20;;;5.97;;
69246;SDS011;56358;56.328;43.992;2023-10-19T04:17:16;10.82;;;6.50;;
69246;SDS011;56358;56.328;43.992;2023-10-19T04:19:21;12.18;;;5.68;;
69246;SDS011;56358;56.328;43.992;2023-10-19T04:21:21;16.50;;;5.82;;
69246;SDS011;56358;56.328;43.992;2023-10-19T04:23:22;10.40;;;5.75;;
69246;SDS011;56358;56.328;43.992;2023-10-19T04:25:27;9.20;;;5.18;;
69246;SDS011;56358;56.328;43.992;2023-10-19T04:27:29;11.13;;;5.47;;
69246;SDS011;56358;56.328;43.992;2023-10-19T04:29:32;10.18;;;4.78;;
69246;SDS011;56358;56.328;43.992;2023-10-19T04:31:33;11.45;;;5.15;;
69246;SDS011;56358;56.328;43.992;2023-10-19T04:33:33;10.10;;;5.25;;
69246;SDS011;56358;56.328;43.992;2023-10-19T04:35:37;9.75;;;5.28;;
69246;SDS011;56358;56.328;43.992;2023-10-19T04:37:38;13.40;;;5.63;;
69246;SDS011;56358;56.328;43.992;2023-10-19T04:39:42;11.13;;;5.50;;
69246;SDS011;56358;56.328;43.992;2023-10-19T04:41:43;11.35;;;5.47;;
69246;SDS011;56358;56.328;43.992;2023-10-19T04:43:44;9.80;;;4.93;;
69246;SDS011;56358;56.328;43.992;2023-10-19T04:45:50;9.75;;;5.20;;
69246;SDS011;56358;56.328;43.992;2023-10-19T04:47:51;9.02;;;4.40;;
69246;SDS011;56358;56.328;43.992;2023-10-19T04:49:53;9.73;;;4.70;;
69246;SDS011;56358;56.328;43.992;2023-10-19T04:51:54;19.00;;;8.30;;
69246;SDS011;56358;56.328;43.992;2023-10-19T04:53:54;15.77;;;7.72;;
69246;SDS011;56358;56.328;43.992;2023-10-19T04:55:55;13.13;;;6.80;;
69246;SDS011;56358;56.328;43.992;2023-10-19T04:57:56;11.60;;;5.50;;
69246;SDS011;56358;56.328;43.992;2023-10-19T04:59:57;10.68;;;4.65;;
69246;SDS011;56358;56.328;43.992;2023-10-19T05:01:59;13.07;;;6.22;;
69246;SDS011;56358;56.328;43.992;2023-10-19T05:04:02;9.25;;;4.35;;
69246;SDS011;56358;56.328;43.992;2023-10-19T05:06:03;6.45;;;3.35;;
69246;SDS011;56358;56.328;43.992;2023-10-19T05:08:04;7.72;;;3.45;;
69246;SDS011;56358;56.328;43.992;2023-10-19T05:10:05;5.43;;;2.70;;
69246;SDS011;56358;56.328;43.992;2023-10-19T05:12:07;6.38;;;3.10;;
69246;SDS011;56358;56.328;43.992;2023-10-19T05:14:14;4.78;;;2.40;;
69246;SDS011;56358;56.328;43.992;2023-10-19T05:16:14;4.40;;;1.90;;
69246;SDS011;56358;56.328;43.992;2023-10-19T05:18:15;3.90;;;1.88;;
69246;SDS011;56358;56.328;43.992;2023-10-19T05:20:16;21.25;;;7.97;;
69246;SDS011;56358;56.328;43.992;2023-10-19T05:22:17;5.68;;;2.92;;
69246;SDS011;56358;56.328;43.992;2023-10-19T05:24:18;4.65;;;2.60;;
69246;SDS011;56358;56.328;43.992;2023-10-19T05:26:19;4.93;;;2.72;;
69246;SDS011;56358;56.328;43.992;2023-10-19T05:28:20;5.20;;;2.80;;
69246;SDS011;56358;56.328;43.992;2023-10-19T05:30:22;4.88;;;2.80;;
69246;SDS011;56358;56.328;43.992;2023-10-19T05:32:23;5.72;;;2.80;;
69246;SDS011;56358;56.328;43.992;2023-10-19T05:34:24;4.90;;;2.95;;
69246;SDS011;56358;56.328;43.992;2023-10-19T05:36:27;6.30;;;3.00;;
69246;SDS011;56358;56.328;43.992;2023-10-19T05:38:28;7.75;;;3.15;;
69246;SDS011;56358;56.328;43.992;2023-10-19T05:40:29;7.25;;;3.95;;
69246;SDS011;56358;56.328;43.992;2023-10-19T05:42:30;8.73;;;4.00;;
69246;SDS011;56358;56.328;43.992;2023-10-19T05:44:31;9.68;;;3.85;;
69246;SDS011;56358;56.328;43.992;2023-10-19T05:46:32;7.93;;;3.85;;
69246;SDS011;56358;56.328;43.992;2023-10-19T05:48:32;10.18;;;4.13;;
69246;SDS011;56358;56.328;43.992;2023-10-19T05:50:34;8.48;;;4.03;;
69246;SDS011;56358;56.328;43.992;2023-10-19T05:52:35;7.72;;;4.30;;
69246;SDS011;56358;56.328;43.992;2023-10-19T05:54:36;7.60;;;4.10;;
69246;SDS011;56358;56.328;43.992;2023-10-19T05:56:38;8.13;;;4.00;;
69246;SDS011;56358;56.328;43.992;2023-10-19T05:58:38;11.00;;;4.05;;
69246;SDS011;56358;56.328;43.992;2023-10-19T06:00:39;9.40;;;4.53;;
69246;SDS011;56358;56.328;43.992;2023-10-19T06:02:44;7.40;;;3.75;;
69246;SDS011;56358;56.328;43.992;2023-10-19T06:04:46;8.27;;;4.80;;
69246;SDS011;56358;56.328;43.992;2023-10-19T06:06:47;10.90;;;4.90;;
69246;SDS011;56358;56.328;43.992;2023-10-19T06:08:48;9.73;;;4.35;;
69246;SDS011;56358;56.328;43.992;2023-10-19T06:10:54;10.02;;;4.85;;
69246;SDS011;56358;56.328;43.992;2023-10-19T06:12:55;10.18;;;5.07;;
69246;SDS011;56358;56.328;43.992;2023-10-19T06:14:58;8.43;;;4.37;;
69246;SDS011;56358;56.328;43.992;2023-10-19T06:17:00;11.32;;;4.85;;
69246;SDS011;56358;56.328;43.992;2023-10-19T06:19:01;9.63;;;4.90;;
69246;SDS011;56358;56.328;43.992;2023-10-19T06:21:03;8.98;;;4.38;;
69246;SDS011;56358;56.328;43.992;2023-10-19T06:23:05;11.65;;;5.18;;
69246;SDS011;56358;56.328;43.992;2023-10-19T06:25:06;11.68;;;4.30;;
69246;SDS011;56358;56.328;43.992;2023-10-19T06:27:07;11.05;;;4.53;;
69246;SDS011;56358;56.328;43.992;2023-10-19T06:29:08;11.27;;;4.55;;
69246;SDS011;56358;56.328;43.992;2023-10-19T06:31:08;12.00;;;4.45;;
69246;SDS011;56358;56.328;43.992;2023-10-19T06:33:09;8.75;;;4.47;;
69246;SDS011;56358;56.328;43.992;2023-10-19T06:35:10;9.80;;;4.28;;
69246;SDS011;56358;56.328;43.992;2023-10-19T06:37:11;10.55;;;4.90;;
69246;SDS011;56358;56.328;43.992;2023-10-19T06:39:12;12.48;;;4.85;;
69246;SDS011;56358;56.328;43.992;2023-10-19T06:41:13;10.20;;;5.07;;
69246;SDS011;56358;56.328;43.992;2023-10-19T06:43:15;30.05;;;11.52;;
69246;SDS011;56358;56.328;43.992;2023-10-19T06:45:17;13.07;;;5.13;;
69246;SDS011;56358;56.328;43.992;2023-10-19T06:47:19;31.80;;;12.60;;
69246;SDS011;56358;56.328;43.992;2023-10-19T06:49:20;16.48;;;5.68;;
69246;SDS011;56358;56.328;43.992;2023-10-19T06:51:21;12.82;;;5.25;;
69246;SDS011;56358;56.328;43.992;2023-10-19T06:53:22;9.90;;;5.03;;
69246;SDS011;56358;56.328;43.992;2023-10-19T06:55:23;16.73;;;6.38;;
69246;SDS011;56358;56.328;43.992;2023-10-19T06:57:24;12.75;;;6.05;;
69246;SDS011;56358;56.328;43.992;2023-10-19T06:59:24;13.35;;;5.70;;
69246;SDS011;56358;56.328;43.992;2023-10-19T07:01:25;12.82;;;5.90;;
69246;SDS011;56358;56.328;43.992;2023-10-19T07:03:29;14.88;;;5.63;;
69246;SDS011;56358;56.328;43.992;2023-10-19T07:05:30;12.57;;;6.40;;
69246;SDS011;56358;56.328;43.992;2023-10-19T07:07:31;13.15;;;6.30;;
69246;SDS011;56358;56.328;43.992;2023-10-19T07:09:32;14.30;;;6.53;;
69246;SDS011;56358;56.328;43.992;2023-10-19T07:11:35;13.88;;;6.97;;
69246;SDS011;56358;56.328;43.992;2023-10-19T07:13:35;15.73;;;7.25;;
69246;SDS011;56358;56.328;43.992;2023-10-19T07:15:36;19.40;;;7.65;;
69246;SDS011;56358;56.328;43.992;2023-10-19T07:17:36;17.35;;;7.38;;
69246;SDS011;56358;56.328;43.992;2023-10-19T07:19:43;14.20;;;6.75;;
69246;SDS011;56358;56.328;43.992;2023-10-19T07:21:43;14.73;;;8.40;;
69246;SDS011;56358;56.328;43.992;2023-10-19T07:23:48;16.73;;;7.20;;
69246;SDS011;56358;56.328;43.992;2023-10-19T07:25:52;19.67;;;7.82;;
69246;SDS011;56358;56.328;43.992;2023-10-19T07:27:59;17.98;;;8.27;;
69246;SDS011;56358;56.328;43.992;2023-10-19T07:30:01;16.83;;;7.97;;
69246;SDS011;56358;56.328;43.992;2023-10-19T07:32:05;20.83;;;9.50;;
69246;SDS011;56358;56.328;43.992;2023-10-19T07:34:07;23.83;;;8.93;;
69246;SDS011;56358;56.328;43.992;2023-10-19T07:36:12;33.58;;;14.60;;
69246;SDS011;56358;56.328;43.992;2023-10-19T07:38:15;18.13;;;9.05;;
69246;SDS011;56358;56.328;43.992;2023-10-19T07:40:17;19.17;;;9.33;;
69246;SDS011;56358;56.328;43.992;2023-10-19T07:42:20;20.88;;;10.35;;
69246;SDS011;56358;56.328;43.992;2023-10-19T07:44:21;20.25;;;8.90;;
69246;SDS011;56358;56.328;43.992;2023-10-19T07:46:22;15.63;;;8.27;;
69246;SDS011;56358;56.328;43.992;2023-10-19T07:48:23;18.05;;;8.90;;
69246;SDS011;56358;56.328;43.992;2023-10-19T07:50:25;18.23;;;8.55;;
69246;SDS011;56358;56.328;43.992;2023-10-19T07:52:26;17.77;;;8.50;;
69246;SDS011;56358;56.328;43.992;2023-10-19T07:54:27;18.80;;;8.90;;
69246;SDS011;56358;56.328;43.992;2023-10-19T07:56:27;19.48;;;8.93;;
69246;SDS011;56358;56.328;43.992;2023-10-19T07:58:29;17.48;;;9.45;;
69246;SDS011;56358;56.328;43.992;2023-10-19T08:00:30;16.50;;;8.52;;
69246;SDS011;56358;56.328;43.992;2023-10-19T08:02:32;20.08;;;9.65;;
69246;SDS011;56358;56.328;43.992;2023-10-19T08:04:34;18.42;;;9.40;;
69246;SDS011;56358;56.328;43.992;2023-10-19T08:06:35;20.52;;;8.45;;
69246;SDS011;56358;56.328;43.992;2023-10-19T08:08:36;15.75;;;8.43;;
69246;SDS011;56358;56.328;43.992;2023-10-19T08:10:37;17.63;;;9.25;;
69246;SDS011;56358;56.328;43.992;2023-10-19T08:12:38;19.63;;;8.88;;
69246;SDS011;56358;56.328;43.992;2023-10-19T08:14:41;20.08;;;9.18;;
69246;SDS011;56358;56.328;43.992;2023-10-19T08:16:42;19.40;;;8.85;;
69246;SDS011;56358;56.328;43.992;2023-10-19T08:18:43;19.35;;;9.05;;
69246;SDS011;56358;56.328;43.992;2023-10-19T08:20:44;15.82;;;8.27;;
69246;SDS011;56358;56.328;43.992;2023-10-19T08:22:45;16.02;;;8.65;;
69246;SDS011;56358;56.328;43.992;2023-10-19T08:24:47;17.63;;;8.40;;
69246;SDS011;56358;56.328;43.992;2023-10-19T08:26:50;17.35;;;8.02;;
69246;SDS011;56358;56.328;43.992;2023-10-19T08:28:51;15.23;;;8.07;;
69246;SDS011;56358;56.328;43.992;2023-10-19T08:30:51;15.55;;;7.47;;
69246;SDS011;56358;56.328;43.992;2023-10-19T08:33:00;11.80;;;6.50;;
69246;SDS011;56358;56.328;43.992;2023-10-19T08:35:02;14.98;;;7.30;;
69246;SDS011;56358;56.328;43.992;2023-10-19T08:37:04;16.23;;;7.78;;
69246;SDS011;56358;56.328;43.992;2023-10-19T08:39:05;12.63;;;6.70;;
69246;SDS011;56358;56.328;43.992;2023-10-19T08:41:07;12.75;;;7.05;;
69246;SDS011;56358;56.328;43.992;2023-10-19T08:43:09;15.32;;;7.50;;
69246;SDS011;56358;56.328;43.992;2023-10-19T08:45:13;13.00;;;7.22;;
69246;SDS011;56358;56.328;43.992;2023-10-19T08:47:15;13.15;;;7.20;;
69246;SDS011;56358;56.328;43.992;2023-10-19T08:49:16;14.70;;;7.43;;
69246;SDS011;56358;56.328;43.992;2023-10-19T08:51:17;12.98;;;6.85;;
69246;SDS011;56358;56.328;43.992;2023-10-19T08:53:18;13.68;;;7.20;;
69246;SDS011;56358;56.328;43.992;2023-10-19T08:55:21;12.43;;;6.95;;
69246;SDS011;56358;56.328;43.992;2023-10-19T08:57:22;12.27;;;6.57;;
69246;SDS011;56358;56.328;43.992;2023-10-19T08:59:23;14.48;;;6.93;;
69246;SDS011;56358;56.328;43.992;2023-10-19T09:01:24;12.20;;;6.45;;
69246;SDS011;56358;56.328;43.992;2023-10-19T09:03:28;11.88;;;6.72;;
69246;SDS011;56358;56.328;43.992;2023-10-19T09:05:29;13.05;;;6.63;;
69246;SDS011;56358;56.328;43.992;2023-10-19T09:07:30;16.98;;;7.18;;
69246;SDS011;56358;56.328;43.992;2023-10-19T09:09:31;13.30;;;7.93;;
69246;SDS011;56358;56.328;43.992;2023-10-19T09:11:33;11.30;;;6.13;;
69246;SDS011;56358;56.328;43.992;2023-10-19T09:13:44;12.25;;;6.78;;
69246;SDS011;56358;56.328;43.992;2023-10-19T09:15:47;13.43;;;6.43;;
69246;SDS011;56358;56.328;43.992;2023-10-19T09:17:53;13.43;;;6.25;;
69246;SDS011;56358;56.328;43.992;2023-10-19T09:19:55;13.68;;;6.38;;
69246;SDS011;56358;56.328;43.992;2023-10-19T09:21:56;12.73;;;6.30;;
69246;SDS011;56358;56.328;43.992;2023-10-19T09:23:58;13.05;;;7.10;;
69246;SDS011;56358;56.328;43.992;2023-10-19T09:26:00;11.13;;;6.18;;
69246;SDS011;56358;56.328;43.992;2023-10-19T09:28:05;12.10;;;5.75;;
69246;SDS011;56358;56.328;43.992;2023-10-19T09:30:07;10.40;;;5.65;;
69246;SDS011;56358;56.328;43.992;2023-10-19T09:32:09;10.63;;;5.45;;
69246;SDS011;56358;56.328;43.992;2023-10-19T09:34:11;10.80;;;5.50;;
69246;SDS011;56358;56.328;43.992;2023-10-19T09:36:13;10.18;;;6.05;;
69246;SDS011;56358;56.328;43.992;2023-10-19T09:38:15;9.00;;;5.43;;
69246;SDS011;56358;56.328;43.992;2023-10-19T09:40:25;13.55;;;7.30;;
69246;SDS011;56358;56.328;43.992;2023-10-19T09:42:29;14.40;;;6.80;;
69246;SDS011;56358;56.328;43.992;2023-10-19T09:44:39;9.85;;;5.70;;
69246;SDS011;56358;56.328;43.992;2023-10-19T09:46:42;13.05;;;6.07;;
69246;SDS011;56358;56.328;43.992;2023-10-19T09:48:45;10.38;;;5.38;;
69246;SDS011;56358;56.328;43.992;2023-10-19T09:50:52;17.55;;;7.35;;
69246;SDS011;56358;56.328;43.992;2023-10-19T09:52:59;11.38;;;6.18;;
69246;SDS011;56358;56.328;43.992;2023-10-19T09:55:06;12.13;;;6.30;;
69246;SDS011;56358;56.328;43.992;2023-10-19T09:57:14;15.82;;;7.15;;
69246;SDS011;56358;56.328;43.992;2023-10-19T09:59:33;12.15;;;5.90;;
69246;SDS011;56358;56.328;43.992;2023-10-19T10:04:33;9.68;;;5.60;;
69246;SDS011;56358;56.328;43.992;2023-10-19T10:08:51;11.18;;;5.53;;
69246;SDS011;56358;56.328;43.992;2023-10-19T10:10:52;12.77;;;6.30;;
69246;SDS011;56358;56.328;43.992;2023-10-19T10:12:53;15.23;;;6.30;;
69246;SDS011;56358;56.328;43.992;2023-10-19T10:19:02;11.40;;;5.65;;
69246;SDS011;56358;56.328;43.992;2023-10-19T10:21:05;9.87;;;4.90;;
69246;SDS011;56358;56.328;43.992;2023-10-19T10:25:27;7.47;;;4.25;;
69246;SDS011;56358;56.328;43.992;2023-10-19T10:27:29;8.15;;;4.00;;
69246;SDS011;56358;56.328;43.992;2023-10-19T10:29:30;7.85;;;4.43;;
69246;SDS011;56358;56.328;43.992;2023-10-19T10:31:33;8.75;;;5.00;;
69246;SDS011;56358;56.328;43.992;2023-10-19T10:33:40;8.90;;;3.47;;
69246;SDS011;56358;56.328;43.992;2023-10-19T10:35:54;6.95;;;4.30;;
69246;SDS011;56358;56.328;43.992;2023-10-19T10:37:55;8.32;;;3.60;;
69246;SDS011;56358;56.328;43.992;2023-10-19T10:39:58;8.00;;;3.35;;
69246;SDS011;56358;56.328;43.992;2023-10-19T10:42:01;8.57;;;4.63;;
69246;SDS011;56358;56.328;43.992;2023-10-19T10:44:03;6.43;;;3.90;;
69246;SDS011;56358;56.328;43.992;2023-10-19T10:46:07;7.93;;;3.80;;
69246;SDS011;56358;56.328;43.992;2023-10-19T10:48:14;8.10;;;3.95;;
69246;SDS011;56358;56.328;43.992;2023-10-19T10:50:19;8.38;;;4.65;;
69246;SDS011;56358;56.328;43.992;2023-10-19T10:52:23;9.38;;;3.80;;
69246;SDS011;56358;56.328;43.992;2023-10-19T10:54:25;9.27;;;3.80;;
69246;SDS011;56358;56.328;43.992;2023-10-19T10:56:26;6.50;;;3.63;;
69246;SDS011;56358;56.328;43.992;2023-10-19T10:58:27;9.63;;;3.92;;
69246;SDS011;56358;56.328;43.992;2023-10-19T11:00:27;8.50;;;4.32;;
69246;SDS011;56358;56.328;43.992;2023-10-19T11:02:28;7.30;;;3.45;;
69246;SDS011;56358;56.328;43.992;2023-10-19T11:04:29;6.50;;;3.90;;
69246;SDS011;56358;56.328;43.992;2023-10-19T11:06:30;6.90;;;4.07;;
69246;SDS011;56358;56.328;43.992;2023-10-19T11:08:30;10.38;;;4.97;;
69246;SDS011;56358;56.328;43.992;2023-10-19T11:10:33;6.38;;;4.05;;
69246;SDS011;56358;56.328;43.992;2023-10-19T11:12:34;8.27;;;4.32;;
69246;SDS011;56358;56.328;43.992;2023-10-19T11:14:36;9.25;;;4.72;;
69246;SDS011;56358;56.328;43.992;2023-10-19T11:16:36;8.52;;;5.28;;
69246;SDS011;56358;56.328;43.992;2023-10-19T11:18:40;7.95;;;4.60;;
69246;SDS011;56358;56.328;43.992;2023-10-19T11:20:45;8.38;;;5.07;;
69246;SDS011;56358;56.328;43.992;2023-10-19T11:22:56;9.38;;;5.05;;
69246;SDS011;56358;56.328;43.992;2023-10-19T11:24:58;9.07;;;5.18;;
69246;SDS011;56358;56.328;43.992;2023-10-19T11:27:25;11.52;;;6.95;;
69246;SDS011;56358;56.328;43.992;2023-10-19T11:29:27;8.95;;;5.10;;
69246;SDS011;56358;56.328;43.992;2023-10-19T11:31:27;14.75;;;6.55;;
69246;SDS011;56358;56.328;43.992;2023-10-19T11:33:31;12.35;;;5.80;;
69246;SDS011;56358;56.328;43.992;2023-10-19T11:35:32;15.50;;;7.45;;
69246;SDS011;56358;56.328;43.992;2023-10-19T11:37:49;14.85;;;6.47;;
69246;SDS011;56358;56.328;43.992;2023-10-19T11:39:52;12.88;;;5.85;;
69246;SDS011;56358;56.328;43.992;2023-10-19T11:41:53;11.95;;;5.93;;
69246;SDS011;56358;56.328;43.992;2023-10-19T11:43:54;10.07;;;5.05;;
69246;SDS011;56358;56.328;43.992;2023-10-19T11:45:54;11.38;;;5.70;;
69246;SDS011;56358;56.328;43.992;2023-10-19T11:47:55;9.35;;;5.40;;
69246;SDS011;56358;56.328;43.992;2023-10-19T11:49:57;8.15;;;5.07;;
69246;SDS011;56358;56.328;43.992;2023-10-19T11:51:57;10.55;;;5.13;;
69246;SDS011;56358;56.328;43.992;2023-10-19T11:53:58;9.18;;;5.97;;
69246;SDS011;56358;56.328;43.992;2023-10-19T11:56:00;11.60;;;5.82;;
69246;SDS011;56358;56.328;43.992;2023-10-19T11:58:02;12.65;;;5.90;;
69246;SDS011;56358;56.328;43.992;2023-10-19T12:00:04;11.15;;;5.90;;
69246;SDS011;56358;56.328;43.992;2023-10-19T12:02:09;13.18;;;6.32;;
69246;SDS011;56358;56.328;43.992;2023-10-19T12:04:10;11.25;;;5.60;;
69246;SDS011;56358;56.328;43.992;2023-10-19T12:06:11;11.82;;;5.97;;
69246;SDS011;56358;56.328;43.992;2023-10-19T12:08:13;9.48;;;5.72;;
69246;SDS011;56358;56.328;43.992;2023-10-19T12:10:14;15.00;;;6.90;;
69246;SDS011;56358;56.328;43.992;2023-10-19T12:12:15;14.15;;;7.05;;
69246;SDS011;56358;56.328;43.992;2023-10-19T12:14:15;9.55;;;5.38;;